sensor_id;sensor_type;location;lat;lon;timestamp;temperature;humidity
20315;DHT22;10315;50.958;13.080;2024-01-16T00:06:40;-1.50;99.90
20315;DHT22;10315;50.958;13.080;2024-01-16T00:16:43;-1.50;99.90
20315;DHT22;10315;50.958;13.080;2024-01-16T00:26:44;-1.50;99.90
20315;DHT22;10315;50.958;13.080;2024-01-16T00:36:48;-1.50;99.90
20315;DHT22;10315;50.958;13.080;2024-01-16T00:46:49;-1.60;99.90
20315;DHT22;10315;50.958;13.080;2024-01-16T00:56:53;-1.50;99.90
20315;DHT22;10315;50.958;13.080;2024-01-16T01:06:59;-1.50;99.90
20315;DHT22;10315;50.958;13.080;2024-01-16T01:17:02;-1.40;99.90
20315;DHT22;10315;50.958;13.080;2024-01-16T01:27:04;-1.40;99.90
20315;DHT22;10315;50.958;13.080;2024-01-16T01:37:07;-1.40;99.90
20315;DHT22;10315;50.958;13.080;2024-01-16T01:47:09;-1.40;99.90
20315;DHT22;10315;50.958;13.080;2024-01-16T01:57:12;-1.40;99.90
20315;DHT22;10315;50.958;13.080;2024-01-16T02:07:13;-1.40;99.90
20315;DHT22;10315;50.958;13.080;2024-01-16T02:17:17;-1.30;99.90
20315;DHT22;10315;50.958;13.080;2024-01-16T02:27:20;-1.30;99.90
20315;DHT22;10315;50.958;13.080;2024-01-16T02:37:21;-1.30;99.90
20315;DHT22;10315;50.958;13.080;2024-01-16T02:47:25;-1.30;99.90
20315;DHT22;10315;50.958;13.080;2024-01-16T02:57:26;-1.20;99.90
20315;DHT22;10315;50.958;13.080;2024-01-16T03:07:29;-1.30;99.90
20315;DHT22;10315;50.958;13.080;2024-01-16T03:17:30;-1.20;99.90
20315;DHT22;10315;50.958;13.080;2024-01-16T03:27:33;-1.20;99.90
20315;DHT22;10315;50.958;13.080;2024-01-16T03:37:34;-1.20;99.90
20315;DHT22;10315;50.958;13.080;2024-01-16T03:47:37;-1.20;99.90
20315;DHT22;10315;50.958;13.080;2024-01-16T03:57:39;-1.20;99.90
20315;DHT22;10315;50.958;13.080;2024-01-16T04:07:41;-1.20;99.90
20315;DHT22;10315;50.958;13.080;2024-01-16T04:17:43;-1.10;99.90
20315;DHT22;10315;50.958;13.080;2024-01-16T04:27:46;-1.10;99.90
20315;DHT22;10315;50.958;13.080;2024-01-16T04:37:47;-1.20;99.90
20315;DHT22;10315;50.958;13.080;2024-01-16T04:47:50;-1.30;99.90
20315;DHT22;10315;50.958;13.080;2024-01-16T04:57:51;-1.40;99.90
20315;DHT22;10315;50.958;13.080;2024-01-16T05:07:54;-1.40;99.90
20315;DHT22;10315;50.958;13.080;2024-01-16T05:17:56;-1.40;99.90
20315;DHT22;10315;50.958;13.080;2024-01-16T05:27:58;-1.30;99.90
20315;DHT22;10315;50.958;13.080;2024-01-16T05:38:01;-1.30;99.90
20315;DHT22;10315;50.958;13.080;2024-01-16T05:48:04;-1.40;99.90
20315;DHT22;10315;50.958;13.080;2024-01-16T05:58:07;-1.30;99.90
20315;DHT22;10315;50.958;13.080;2024-01-16T06:08:10;-1.40;99.90
20315;DHT22;10315;50.958;13.080;2024-01-16T06:18:11;-1.30;99.90
20315;DHT22;10315;50.958;13.080;2024-01-16T06:28:14;-1.30;99.90
20315;DHT22;10315;50.958;13.080;2024-01-16T06:38:16;-1.30;99.90
20315;DHT22;10315;50.958;13.080;2024-01-16T06:48:18;-1.40;99.90
20315;DHT22;10315;50.958;13.080;2024-01-16T06:58:20;-1.40;99.90
20315;DHT22;10315;50.958;13.080;2024-01-16T07:08:23;-1.50;99.90
20315;DHT22;10315;50.958;13.080;2024-01-16T07:18:24;-1.70;99.90
20315;DHT22;10315;50.958;13.080;2024-01-16T07:28:27;-1.70;99.90
20315;DHT22;10315;50.958;13.080;2024-01-16T07:38:28;-1.60;99.90
20315;DHT22;10315;50.958;13.080;2024-01-16T07:48:31;-1.60;99.90
20315;DHT22;10315;50.958;13.080;2024-01-16T07:58:32;-1.70;99.90
20315;DHT22;10315;50.958;13.080;2024-01-16T08:08:35;-1.60;99.90
20315;DHT22;10315;50.958;13.080;2024-01-16T08:18:37;-1.40;99.90
20315;DHT22;10315;50.958;13.080;2024-01-16T08:28:39;-1.60;99.90
20315;DHT22;10315;50.958;13.080;2024-01-16T08:38:41;-1.60;99.90
20315;DHT22;10315;50.958;13.080;2024-01-16T08:48:44;-1.50;99.90
20315;DHT22;10315;50.958;13.080;2024-01-16T08:58:45;-1.30;99.90
20315;DHT22;10315;50.958;13.080;2024-01-16T09:08:48;-1.30;99.90
20315;DHT22;10315;50.958;13.080;2024-01-16T09:18:49;-1.30;99.90
20315;DHT22;10315;50.958;13.080;2024-01-16T09:28:52;-1.10;99.90
20315;DHT22;10315;50.958;13.080;2024-01-16T09:38:54;-1.00;99.90
20315;DHT22;10315;50.958;13.080;2024-01-16T09:48:57;-0.80;99.90
20315;DHT22;10315;50.958;13.080;2024-01-16T09:59:02;-0.90;99.90
20315;DHT22;10315;50.958;13.080;2024-01-16T10:09:06;-0.90;99.90
20315;DHT22;10315;50.958;13.080;2024-01-16T10:19:08;-0.70;99.90
20315;DHT22;10315;50.958;13.080;2024-01-16T10:29:11;-0.70;99.90
20315;DHT22;10315;50.958;13.080;2024-01-16T10:39:13;-0.40;99.90
20315;DHT22;10315;50.958;13.080;2024-01-16T10:49:16;-0.30;99.90
20315;DHT22;10315;50.958;13.080;2024-01-16T10:59:18;-0.40;99.90
20315;DHT22;10315;50.958;13.080;2024-01-16T11:09:21;-0.40;99.90
20315;DHT22;10315;50.958;13.080;2024-01-16T11:19:23;-0.20;99.90
20315;DHT22;10315;50.958;13.080;2024-01-16T11:29:34;-0.20;99.90
20315;DHT22;10315;50.958;13.080;2024-01-16T11:39:36;-0.10;99.90
20315;DHT22;10315;50.958;13.080;2024-01-16T11:49:39;0.30;99.90
20315;DHT22;10315;50.958;13.080;2024-01-16T11:59:57;0.50;99.90
20315;DHT22;10315;50.958;13.080;2024-01-16T12:10:00;0.50;99.90
20315;DHT22;10315;50.958;13.080;2024-01-16T12:20:15;0.50;99.90
20315;DHT22;10315;50.958;13.080;2024-01-16T12:30:18;0.50;99.90
20315;DHT22;10315;50.958;13.080;2024-01-16T12:40:19;0.60;99.90
20315;DHT22;10315;50.958;13.080;2024-01-16T12:50:22;0.70;99.90
20315;DHT22;10315;50.958;13.080;2024-01-16T13:00:24;0.60;99.90
20315;DHT22;10315;50.958;13.080;2024-01-16T13:10:27;0.60;99.90
20315;DHT22;10315;50.958;13.080;2024-01-16T13:20:30;0.50;99.90
20315;DHT22;10315;50.958;13.080;2024-01-16T13:30:33;0.50;99.90
20315;DHT22;10315;50.958;13.080;2024-01-16T13:40:35;0.50;99.90
20315;DHT22;10315;50.958;13.080;2024-01-16T13:50:38;0.50;99.90
20315;DHT22;10315;50.958;13.080;2024-01-16T14:00:40;0.40;99.90
20315;DHT22;10315;50.958;13.080;2024-01-16T14:10:43;0.30;99.90
20315;DHT22;10315;50.958;13.080;2024-01-16T14:20:45;0.10;99.90
20315;DHT22;10315;50.958;13.080;2024-01-16T14:30:47;0.00;99.90
20315;DHT22;10315;50.958;13.080;2024-01-16T14:40:51;-0.20;99.90
20315;DHT22;10315;50.958;13.080;2024-01-16T14:50:54;-0.20;99.90
20315;DHT22;10315;50.958;13.080;2024-01-16T15:00:56;-0.30;99.90
20315;DHT22;10315;50.958;13.080;2024-01-16T15:11:00;-0.40;99.90
20315;DHT22;10315;50.958;13.080;2024-01-16T15:21:01;-0.40;99.90
20315;DHT22;10315;50.958;13.080;2024-01-16T15:31:04;-0.40;99.90
20315;DHT22;10315;50.958;13.080;2024-01-16T15:41:07;-0.30;99.90
20315;DHT22;10315;50.958;13.080;2024-01-16T15:51:10;-0.40;99.90
20315;DHT22;10315;50.958;13.080;2024-01-16T16:01:12;-0.40;99.90
20315;DHT22;10315;50.958;13.080;2024-01-16T16:11:14;-0.50;99.90
20315;DHT22;10315;50.958;13.080;2024-01-16T16:21:16;-0.60;99.90
20315;DHT22;10315;50.958;13.080;2024-01-16T16:31:19;-0.70;99.90
20315;DHT22;10315;50.958;13.080;2024-01-16T16:41:20;-0.70;99.90
20315;DHT22;10315;50.958;13.080;2024-01-16T16:51:24;-0.80;99.90
20315;DHT22;10315;50.958;13.080;2024-01-16T17:01:26;-0.80;99.90
20315;DHT22;10315;50.958;13.080;2024-01-16T17:11:28;-0.90;99.90
20315;DHT22;10315;50.958;13.080;2024-01-16T17:21:30;-0.90;99.90
20315;DHT22;10315;50.958;13.080;2024-01-16T17:31:33;-1.00;99.90
20315;DHT22;10315;50.958;13.080;2024-01-16T17:41:35;-1.00;99.90
20315;DHT22;10315;50.958;13.080;2024-01-16T17:51:38;-1.30;99.90
20315;DHT22;10315;50.958;13.080;2024-01-16T18:01:40;-1.40;99.90
20315;DHT22;10315;50.958;13.080;2024-01-16T18:11:52;-1.60;99.90
20315;DHT22;10315;50.958;13.080;2024-01-16T18:21:53;-1.80;99.90
20315;DHT22;10315;50.958;13.080;2024-01-16T18:31:56;-1.80;99.90
20315;DHT22;10315;50.958;13.080;2024-01-16T18:42:01;-2.00;99.90
20315;DHT22;10315;50.958;13.080;2024-01-16T18:52:04;-2.20;99.90
20315;DHT22;10315;50.958;13.080;2024-01-16T19:02:06;-2.40;99.90
20315;DHT22;10315;50.958;13.080;2024-01-16T19:12:09;-2.50;99.90
20315;DHT22;10315;50.958;13.080;2024-01-16T19:22:12;-2.50;99.90
20315;DHT22;10315;50.958;13.080;2024-01-16T19:32:15;-2.80;99.90
20315;DHT22;10315;50.958;13.080;2024-01-16T19:42:16;-3.00;99.90
20315;DHT22;10315;50.958;13.080;2024-01-16T19:52:20;-3.10;99.90
20315;DHT22;10315;50.958;13.080;2024-01-16T20:02:21;-3.20;99.90
20315;DHT22;10315;50.958;13.080;2024-01-16T20:12:25;-3.30;99.90
20315;DHT22;10315;50.958;13.080;2024-01-16T20:22:26;-3.50;99.90
20315;DHT22;10315;50.958;13.080;2024-01-16T20:32:31;-3.50;99.90
20315;DHT22;10315;50.958;13.080;2024-01-16T20:42:32;-3.50;99.90
20315;DHT22;10315;50.958;13.080;2024-01-16T20:52:35;-3.60;99.90
20315;DHT22;10315;50.958;13.080;2024-01-16T21:02:37;-3.70;99.90
20315;DHT22;10315;50.958;13.080;2024-01-16T21:12:41;-3.70;99.90
20315;DHT22;10315;50.958;13.080;2024-01-16T21:22:42;-3.80;99.90
20315;DHT22;10315;50.958;13.080;2024-01-16T21:32:45;-3.80;99.90
20315;DHT22;10315;50.958;13.080;2024-01-16T21:42:46;-4.10;99.90
20315;DHT22;10315;50.958;13.080;2024-01-16T21:52:49;-4.10;99.90
20315;DHT22;10315;50.958;13.080;2024-01-16T22:02:51;-4.20;99.90
20315;DHT22;10315;50.958;13.080;2024-01-16T22:12:58;-4.30;99.90
20315;DHT22;10315;50.958;13.080;2024-01-16T22:22:59;-4.20;99.90
20315;DHT22;10315;50.958;13.080;2024-01-16T22:33:02;-4.30;99.90
20315;DHT22;10315;50.958;13.080;2024-01-16T22:43:04;-4.20;99.90
20315;DHT22;10315;50.958;13.080;2024-01-16T22:53:07;-4.30;99.90
20315;DHT22;10315;50.958;13.080;2024-01-16T23:03:09;-4.40;99.90
20315;DHT22;10315;50.958;13.080;2024-01-16T23:13:13;-4.50;99.90
20315;DHT22;10315;50.958;13.080;2024-01-16T23:23:14;-4.50;99.90
20315;DHT22;10315;50.958;13.080;2024-01-16T23:33:19;-4.70;99.90
20315;DHT22;10315;50.958;13.080;2024-01-16T23:43:20;-4.90;99.90
20315;DHT22;10315;50.958;13.080;2024-01-16T23:53:23;-5.00;99.90
